sensor_id;sensor_type;location;lat;lon;timestamp;temperature;humidity
56172;DHT22;42052;41.634;-0.946;2022-07-03T00:00:43;26.00;51.90
56172;DHT22;42052;41.634;-0.946;2022-07-03T00:03:09;26.10;51.90
56172;DHT22;42052;41.634;-0.946;2022-07-03T00:05:35;26.10;51.90
56172;DHT22;42052;41.634;-0.946;2022-07-03T00:08:03;26.10;51.70
56172;DHT22;42052;41.634;-0.946;2022-07-03T00:10:29;26.10;51.60
56172;DHT22;42052;41.634;-0.946;2022-07-03T00:12:55;26.10;51.60
56172;DHT22;42052;41.634;-0.946;2022-07-03T00:15:21;26.10;51.50
56172;DHT22;42052;41.634;-0.946;2022-07-03T00:17:47;26.10;51.50
56172;DHT22;42052;41.634;-0.946;2022-07-03T00:20:13;26.10;51.40
56172;DHT22;42052;41.634;-0.946;2022-07-03T00:22:43;26.10;51.40
56172;DHT22;42052;41.634;-0.946;2022-07-03T00:25:11;26.10;51.40
56172;DHT22;42052;41.634;-0.946;2022-07-03T00:27:38;26.20;51.30
56172;DHT22;42052;41.634;-0.946;2022-07-03T00:30:05;26.20;51.20
56172;DHT22;42052;41.634;-0.946;2022-07-03T00:32:33;26.20;51.10
56172;DHT22;42052;41.634;-0.946;2022-07-03T00:35:03;26.20;49.00
56172;DHT22;42052;41.634;-0.946;2022-07-03T00:37:29;26.00;46.60
56172;DHT22;42052;41.634;-0.946;2022-07-03T00:39:56;25.90;45.00
56172;DHT22;42052;41.634;-0.946;2022-07-03T00:42:23;25.80;43.70
56172;DHT22;42052;41.634;-0.946;2022-07-03T00:44:53;25.70;48.30
56172;DHT22;42052;41.634;-0.946;2022-07-03T00:47:24;25.70;51.00
56172;DHT22;42052;41.634;-0.946;2022-07-03T00:49:55;25.70;52.50
56172;DHT22;42052;41.634;-0.946;2022-07-03T00:52:23;25.70;52.90
56172;DHT22;42052;41.634;-0.946;2022-07-03T00:54:57;25.70;52.40
56172;DHT22;42052;41.634;-0.946;2022-07-03T00:57:25;25.80;52.10
56172;DHT22;42052;41.634;-0.946;2022-07-03T00:59:51;25.80;51.80
56172;DHT22;42052;41.634;-0.946;2022-07-03T01:18:53;25.60;48.20
56172;DHT22;42052;41.634;-0.946;2022-07-03T01:21:45;25.50;51.20
56172;DHT22;42052;41.634;-0.946;2022-07-03T01:27:18;25.60;51.70
56172;DHT22;42052;41.634;-0.946;2022-07-03T01:29:51;25.60;51.40
56172;DHT22;42052;41.634;-0.946;2022-07-03T01:32:23;25.60;51.10
56172;DHT22;42052;41.634;-0.946;2022-07-03T01:34:52;25.60;51.10
56172;DHT22;42052;41.634;-0.946;2022-07-03T01:37:20;25.60;51.10
56172;DHT22;42052;41.634;-0.946;2022-07-03T01:39:51;25.70;51.10
56172;DHT22;42052;41.634;-0.946;2022-07-03T01:42:18;25.70;51.00
56172;DHT22;42052;41.634;-0.946;2022-07-03T01:44:47;25.70;50.90
56172;DHT22;42052;41.634;-0.946;2022-07-03T01:47:14;25.70;50.70
56172;DHT22;42052;41.634;-0.946;2022-07-03T01:49:41;25.70;50.60
56172;DHT22;42052;41.634;-0.946;2022-07-03T01:52:10;25.70;50.40
56172;DHT22;42052;41.634;-0.946;2022-07-03T01:54:39;25.70;50.30
56172;DHT22;42052;41.634;-0.946;2022-07-03T01:57:08;25.80;50.20
56172;DHT22;42052;41.634;-0.946;2022-07-03T01:59:34;25.80;50.10
56172;DHT22;42052;41.634;-0.946;2022-07-03T02:02:12;25.80;50.00
56172;DHT22;42052;41.634;-0.946;2022-07-03T02:05:02;25.80;49.80
56172;DHT22;42052;41.634;-0.946;2022-07-03T02:07:47;25.80;49.80
56172;DHT22;42052;41.634;-0.946;2022-07-03T02:10:17;25.90;49.70
56172;DHT22;42052;41.634;-0.946;2022-07-03T02:12:52;25.90;49.60
56172;DHT22;42052;41.634;-0.946;2022-07-03T02:15:31;25.90;49.40
56172;DHT22;42052;41.634;-0.946;2022-07-03T02:17:58;25.90;49.40
56172;DHT22;42052;41.634;-0.946;2022-07-03T02:20:26;25.90;49.30
56172;DHT22;42052;41.634;-0.946;2022-07-03T02:23:00;25.90;49.20
56172;DHT22;42052;41.634;-0.946;2022-07-03T02:25:35;25.90;49.10
56172;DHT22;42052;41.634;-0.946;2022-07-03T02:31:45;25.90;49.00
56172;DHT22;42052;41.634;-0.946;2022-07-03T02:34:17;25.90;48.90
56172;DHT22;42052;41.634;-0.946;2022-07-03T02:36:47;25.90;48.90
56172;DHT22;42052;41.634;-0.946;2022-07-03T02:39:50;25.90;49.00
56172;DHT22;42052;41.634;-0.946;2022-07-03T02:42:25;26.00;49.60
56172;DHT22;42052;41.634;-0.946;2022-07-03T02:44:53;26.00;48.70
56172;DHT22;42052;41.634;-0.946;2022-07-03T02:47:43;26.00;48.70
56172;DHT22;42052;41.634;-0.946;2022-07-03T02:50:11;26.00;48.70
56172;DHT22;42052;41.634;-0.946;2022-07-03T03:00:42;26.10;48.50
56172;DHT22;42052;41.634;-0.946;2022-07-03T03:03:13;26.10;48.50
56172;DHT22;42052;41.634;-0.946;2022-07-03T03:05:47;26.10;48.50
56172;DHT22;42052;41.634;-0.946;2022-07-03T03:10:47;26.10;48.40
56172;DHT22;42052;41.634;-0.946;2022-07-03T03:13:18;26.10;48.40
56172;DHT22;42052;41.634;-0.946;2022-07-03T03:16:04;26.10;48.30
56172;DHT22;42052;41.634;-0.946;2022-07-03T03:18:34;26.10;48.40
56172;DHT22;42052;41.634;-0.946;2022-07-03T03:21:03;26.10;48.30
56172;DHT22;42052;41.634;-0.946;2022-07-03T03:26:18;26.10;48.30
56172;DHT22;42052;41.634;-0.946;2022-07-03T03:28:45;26.10;48.20
56172;DHT22;42052;41.634;-0.946;2022-07-03T03:31:12;26.10;48.20
56172;DHT22;42052;41.634;-0.946;2022-07-03T03:33:49;26.10;48.20
56172;DHT22;42052;41.634;-0.946;2022-07-03T03:36:18;26.10;48.20
56172;DHT22;42052;41.634;-0.946;2022-07-03T03:38:45;26.10;48.20
56172;DHT22;42052;41.634;-0.946;2022-07-03T03:41:11;26.10;48.20
56172;DHT22;42052;41.634;-0.946;2022-07-03T03:43:37;26.10;48.20
56172;DHT22;42052;41.634;-0.946;2022-07-03T03:46:04;26.10;48.20
56172;DHT22;42052;41.634;-0.946;2022-07-03T03:48:32;26.10;48.10
56172;DHT22;42052;41.634;-0.946;2022-07-03T03:50:59;26.10;48.10
56172;DHT22;42052;41.634;-0.946;2022-07-03T03:53:27;26.10;48.20
56172;DHT22;42052;41.634;-0.946;2022-07-03T03:56:12;26.20;48.30
56172;DHT22;42052;41.634;-0.946;2022-07-03T03:58:43;26.10;48.20
56172;DHT22;42052;41.634;-0.946;2022-07-03T04:01:10;26.20;48.30
56172;DHT22;42052;41.634;-0.946;2022-07-03T04:03:37;26.20;48.30
56172;DHT22;42052;41.634;-0.946;2022-07-03T04:06:03;26.10;48.20
56172;DHT22;42052;41.634;-0.946;2022-07-03T04:08:30;26.20;48.90
56172;DHT22;42052;41.634;-0.946;2022-07-03T04:10:57;26.10;48.20
56172;DHT22;42052;41.634;-0.946;2022-07-03T04:13:23;26.20;48.30
56172;DHT22;42052;41.634;-0.946;2022-07-03T04:15:49;26.20;48.20
56172;DHT22;42052;41.634;-0.946;2022-07-03T04:18:16;26.20;48.10
56172;DHT22;42052;41.634;-0.946;2022-07-03T04:20:42;26.20;48.20
56172;DHT22;42052;41.634;-0.946;2022-07-03T04:23:08;26.20;48.10
56172;DHT22;42052;41.634;-0.946;2022-07-03T04:25:34;26.20;48.10
56172;DHT22;42052;41.634;-0.946;2022-07-03T04:28:00;26.20;48.10
56172;DHT22;42052;41.634;-0.946;2022-07-03T04:30:26;26.20;48.10
56172;DHT22;42052;41.634;-0.946;2022-07-03T04:32:52;26.20;48.10
56172;DHT22;42052;41.634;-0.946;2022-07-03T04:35:18;26.20;48.10
56172;DHT22;42052;41.634;-0.946;2022-07-03T04:37:44;26.20;48.10
56172;DHT22;42052;41.634;-0.946;2022-07-03T04:40:11;26.20;48.10
56172;DHT22;42052;41.634;-0.946;2022-07-03T04:42:37;26.20;48.00
56172;DHT22;42052;41.634;-0.946;2022-07-03T04:45:04;26.20;48.00
56172;DHT22;42052;41.634;-0.946;2022-07-03T04:47:30;26.20;48.00
56172;DHT22;42052;41.634;-0.946;2022-07-03T04:49:56;26.20;48.00
56172;DHT22;42052;41.634;-0.946;2022-07-03T04:52:22;26.20;48.00
56172;DHT22;42052;41.634;-0.946;2022-07-03T04:54:48;26.20;48.00
56172;DHT22;42052;41.634;-0.946;2022-07-03T04:57:14;26.20;48.00
56172;DHT22;42052;41.634;-0.946;2022-07-03T04:59:40;26.20;48.00
56172;DHT22;42052;41.634;-0.946;2022-07-03T05:02:06;26.20;48.00
56172;DHT22;42052;41.634;-0.946;2022-07-03T05:04:32;26.20;48.00
56172;DHT22;42052;41.634;-0.946;2022-07-03T05:06:58;26.20;48.00
56172;DHT22;42052;41.634;-0.946;2022-07-03T05:09:25;26.20;48.00
56172;DHT22;42052;41.634;-0.946;2022-07-03T05:11:51;26.20;48.00
56172;DHT22;42052;41.634;-0.946;2022-07-03T05:14:16;26.20;47.90
56172;DHT22;42052;41.634;-0.946;2022-07-03T05:16:42;26.20;48.00
56172;DHT22;42052;41.634;-0.946;2022-07-03T05:19:08;26.20;47.90
56172;DHT22;42052;41.634;-0.946;2022-07-03T05:21:34;26.20;48.00
56172;DHT22;42052;41.634;-0.946;2022-07-03T05:24:00;26.20;47.90
56172;DHT22;42052;41.634;-0.946;2022-07-03T05:26:26;26.20;48.00
56172;DHT22;42052;41.634;-0.946;2022-07-03T05:28:52;26.20;48.00
56172;DHT22;42052;41.634;-0.946;2022-07-03T05:31:18;26.20;48.00
56172;DHT22;42052;41.634;-0.946;2022-07-03T05:33:44;26.20;48.00
56172;DHT22;42052;41.634;-0.946;2022-07-03T05:36:10;26.20;48.00
56172;DHT22;42052;41.634;-0.946;2022-07-03T05:38:36;26.20;48.00
56172;DHT22;42052;41.634;-0.946;2022-07-03T05:41:20;26.20;48.10
56172;DHT22;42052;41.634;-0.946;2022-07-03T05:43:46;26.20;48.10
56172;DHT22;42052;41.634;-0.946;2022-07-03T05:46:12;26.20;48.00
56172;DHT22;42052;41.634;-0.946;2022-07-03T05:48:38;26.30;48.20
56172;DHT22;42052;41.634;-0.946;2022-07-03T05:51:04;26.20;48.20
56172;DHT22;42052;41.634;-0.946;2022-07-03T05:53:30;26.20;48.10
56172;DHT22;42052;41.634;-0.946;2022-07-03T05:55:57;26.20;48.20
56172;DHT22;42052;41.634;-0.946;2022-07-03T05:58:23;26.20;48.20
56172;DHT22;42052;41.634;-0.946;2022-07-03T06:00:49;26.20;48.30
56172;DHT22;42052;41.634;-0.946;2022-07-03T06:03:15;26.20;48.30
56172;DHT22;42052;41.634;-0.946;2022-07-03T06:05:41;26.20;48.40
56172;DHT22;42052;41.634;-0.946;2022-07-03T06:08:07;26.20;48.50
56172;DHT22;42052;41.634;-0.946;2022-07-03T06:10:33;26.20;48.50
56172;DHT22;42052;41.634;-0.946;2022-07-03T06:12:59;26.20;48.60
56172;DHT22;42052;41.634;-0.946;2022-07-03T06:15:25;26.20;48.60
56172;DHT22;42052;41.634;-0.946;2022-07-03T06:17:51;26.30;48.80
56172;DHT22;42052;41.634;-0.946;2022-07-03T06:20:18;26.30;48.70
56172;DHT22;42052;41.634;-0.946;2022-07-03T06:22:44;26.30;48.70
56172;DHT22;42052;41.634;-0.946;2022-07-03T06:25:10;26.20;48.80
56172;DHT22;42052;41.634;-0.946;2022-07-03T06:27:36;26.20;48.60
56172;DHT22;42052;41.634;-0.946;2022-07-03T06:30:03;26.30;48.80
56172;DHT22;42052;41.634;-0.946;2022-07-03T06:32:29;26.20;48.80
56172;DHT22;42052;41.634;-0.946;2022-07-03T06:34:57;26.30;48.90
56172;DHT22;42052;41.634;-0.946;2022-07-03T06:37:23;26.30;49.10
56172;DHT22;42052;41.634;-0.946;2022-07-03T06:39:48;26.30;49.00
56172;DHT22;42052;41.634;-0.946;2022-07-03T06:42:14;26.30;49.20
56172;DHT22;42052;41.634;-0.946;2022-07-03T06:44:40;26.20;49.10
56172;DHT22;42052;41.634;-0.946;2022-07-03T06:47:07;26.20;49.10
56172;DHT22;42052;41.634;-0.946;2022-07-03T06:49:34;26.30;49.30
56172;DHT22;42052;41.634;-0.946;2022-07-03T06:52:00;26.30;49.20
56172;DHT22;42052;41.634;-0.946;2022-07-03T06:54:26;26.30;49.40
56172;DHT22;42052;41.634;-0.946;2022-07-03T06:56:52;26.30;49.40
56172;DHT22;42052;41.634;-0.946;2022-07-03T06:59:19;26.30;49.20
56172;DHT22;42052;41.634;-0.946;2022-07-03T07:01:45;26.30;49.30
56172;DHT22;42052;41.634;-0.946;2022-07-03T07:04:11;26.30;49.30
56172;DHT22;42052;41.634;-0.946;2022-07-03T07:06:37;26.30;49.30
56172;DHT22;42052;41.634;-0.946;2022-07-03T07:09:05;26.30;49.30
56172;DHT22;42052;41.634;-0.946;2022-07-03T07:11:31;26.30;49.30
56172;DHT22;42052;41.634;-0.946;2022-07-03T07:13:57;26.30;49.40
56172;DHT22;42052;41.634;-0.946;2022-07-03T07:16:22;26.30;49.30
56172;DHT22;42052;41.634;-0.946;2022-07-03T07:18:48;26.30;49.50
56172;DHT22;42052;41.634;-0.946;2022-07-03T07:21:14;26.30;49.50
56172;DHT22;42052;41.634;-0.946;2022-07-03T07:24:06;26.30;49.40
56172;DHT22;42052;41.634;-0.946;2022-07-03T07:26:32;26.30;49.30
56172;DHT22;42052;41.634;-0.946;2022-07-03T07:28:58;26.30;49.50
56172;DHT22;42052;41.634;-0.946;2022-07-03T07:31:24;26.30;49.40
56172;DHT22;42052;41.634;-0.946;2022-07-03T07:33:49;26.30;49.60
56172;DHT22;42052;41.634;-0.946;2022-07-03T07:36:21;26.30;49.60
56172;DHT22;42052;41.634;-0.946;2022-07-03T07:38:47;26.30;49.70
56172;DHT22;42052;41.634;-0.946;2022-07-03T07:41:13;26.30;49.60
56172;DHT22;42052;41.634;-0.946;2022-07-03T07:44:04;26.30;49.70
56172;DHT22;42052;41.634;-0.946;2022-07-03T07:46:31;26.30;49.70
56172;DHT22;42052;41.634;-0.946;2022-07-03T07:49:00;26.30;49.60
56172;DHT22;42052;41.634;-0.946;2022-07-03T07:51:26;26.30;49.70
56172;DHT22;42052;41.634;-0.946;2022-07-03T07:53:52;26.30;49.70
56172;DHT22;42052;41.634;-0.946;2022-07-03T07:56:23;26.30;49.60
56172;DHT22;42052;41.634;-0.946;2022-07-03T07:58:50;26.30;49.60
56172;DHT22;42052;41.634;-0.946;2022-07-03T08:01:18;26.30;49.60
56172;DHT22;42052;41.634;-0.946;2022-07-03T08:04:03;26.30;49.60
56172;DHT22;42052;41.634;-0.946;2022-07-03T08:06:48;26.40;50.00
56172;DHT22;42052;41.634;-0.946;2022-07-03T08:09:14;26.40;49.90
56172;DHT22;42052;41.634;-0.946;2022-07-03T08:11:39;26.40;49.90
56172;DHT22;42052;41.634;-0.946;2022-07-03T08:14:05;26.40;49.80
56172;DHT22;42052;41.634;-0.946;2022-07-03T08:16:34;26.30;49.70
56172;DHT22;42052;41.634;-0.946;2022-07-03T08:19:00;26.30;49.70
56172;DHT22;42052;41.634;-0.946;2022-07-03T08:21:26;26.40;49.70
56172;DHT22;42052;41.634;-0.946;2022-07-03T08:23:53;26.40;49.60
56172;DHT22;42052;41.634;-0.946;2022-07-03T08:26:19;26.40;49.60
56172;DHT22;42052;41.634;-0.946;2022-07-03T08:28:44;26.40;49.50
56172;DHT22;42052;41.634;-0.946;2022-07-03T08:31:10;26.30;49.60
56172;DHT22;42052;41.634;-0.946;2022-07-03T08:33:36;26.40;49.60
56172;DHT22;42052;41.634;-0.946;2022-07-03T08:36:04;26.40;49.60
56172;DHT22;42052;41.634;-0.946;2022-07-03T08:38:33;26.40;49.60
56172;DHT22;42052;41.634;-0.946;2022-07-03T08:41:01;26.40;49.90
56172;DHT22;42052;41.634;-0.946;2022-07-03T08:43:27;26.40;49.70
56172;DHT22;42052;41.634;-0.946;2022-07-03T08:45:54;26.40;49.40
56172;DHT22;42052;41.634;-0.946;2022-07-03T08:48:21;26.40;49.50
56172;DHT22;42052;41.634;-0.946;2022-07-03T08:50:48;26.40;49.50
56172;DHT22;42052;41.634;-0.946;2022-07-03T08:53:17;26.40;49.60
56172;DHT22;42052;41.634;-0.946;2022-07-03T08:55:43;26.40;49.60
56172;DHT22;42052;41.634;-0.946;2022-07-03T08:58:11;26.40;49.50
56172;DHT22;42052;41.634;-0.946;2022-07-03T09:00:38;26.50;49.40
56172;DHT22;42052;41.634;-0.946;2022-07-03T09:03:09;26.50;49.50
56172;DHT22;42052;41.634;-0.946;2022-07-03T09:05:35;26.50;49.50
56172;DHT22;42052;41.634;-0.946;2022-07-03T09:08:02;26.50;49.50
56172;DHT22;42052;41.634;-0.946;2022-07-03T09:10:28;26.50;49.30
56172;DHT22;42052;41.634;-0.946;2022-07-03T09:12:55;26.50;49.20
56172;DHT22;42052;41.634;-0.946;2022-07-03T09:15:21;26.50;49.00
56172;DHT22;42052;41.634;-0.946;2022-07-03T09:18:04;26.50;49.00
56172;DHT22;42052;41.634;-0.946;2022-07-03T09:20:39;26.50;48.80
56172;DHT22;42052;41.634;-0.946;2022-07-03T09:23:14;26.50;48.80
56172;DHT22;42052;41.634;-0.946;2022-07-03T09:28:16;26.50;48.80
56172;DHT22;42052;41.634;-0.946;2022-07-03T09:30:59;26.50;48.80
56172;DHT22;42052;41.634;-0.946;2022-07-03T09:33:26;26.50;48.80
56172;DHT22;42052;41.634;-0.946;2022-07-03T09:35:55;26.50;48.70
56172;DHT22;42052;41.634;-0.946;2022-07-03T09:38:22;26.50;48.70
56172;DHT22;42052;41.634;-0.946;2022-07-03T09:40:53;26.60;48.70
56172;DHT22;42052;41.634;-0.946;2022-07-03T09:43:24;26.50;48.50
56172;DHT22;42052;41.634;-0.946;2022-07-03T09:45:58;26.60;48.80
56172;DHT22;42052;41.634;-0.946;2022-07-03T09:48:41;26.60;48.80
56172;DHT22;42052;41.634;-0.946;2022-07-03T09:51:17;26.60;48.60
56172;DHT22;42052;41.634;-0.946;2022-07-03T09:53:52;26.60;48.60
56172;DHT22;42052;41.634;-0.946;2022-07-03T09:56:19;26.60;48.60
56172;DHT22;42052;41.634;-0.946;2022-07-03T09:59:05;26.60;48.70
56172;DHT22;42052;41.634;-0.946;2022-07-03T10:01:31;26.60;48.70
56172;DHT22;42052;41.634;-0.946;2022-07-03T10:04:18;26.60;48.80
56172;DHT22;42052;41.634;-0.946;2022-07-03T10:09:22;26.50;48.80
56172;DHT22;42052;41.634;-0.946;2022-07-03T10:11:48;26.50;48.80
56172;DHT22;42052;41.634;-0.946;2022-07-03T10:14:17;26.60;48.90
56172;DHT22;42052;41.634;-0.946;2022-07-03T10:16:44;26.60;48.90
56172;DHT22;42052;41.634;-0.946;2022-07-03T10:19:19;26.60;48.90
56172;DHT22;42052;41.634;-0.946;2022-07-03T10:21:51;26.60;48.90
56172;DHT22;42052;41.634;-0.946;2022-07-03T10:24:20;26.60;48.90
56172;DHT22;42052;41.634;-0.946;2022-07-03T10:26:46;26.60;48.90
56172;DHT22;42052;41.634;-0.946;2022-07-03T10:29:14;26.60;49.00
56172;DHT22;42052;41.634;-0.946;2022-07-03T10:31:44;26.60;49.00
56172;DHT22;42052;41.634;-0.946;2022-07-03T10:34:22;26.60;48.90
56172;DHT22;42052;41.634;-0.946;2022-07-03T10:37:00;26.60;49.00
56172;DHT22;42052;41.634;-0.946;2022-07-03T10:39:48;26.60;49.00
56172;DHT22;42052;41.634;-0.946;2022-07-03T10:42:27;26.60;49.00
56172;DHT22;42052;41.634;-0.946;2022-07-03T10:45:15;26.60;49.00
56172;DHT22;42052;41.634;-0.946;2022-07-03T10:47:59;26.60;49.10
56172;DHT22;42052;41.634;-0.946;2022-07-03T10:50:25;26.70;49.10
56172;DHT22;42052;41.634;-0.946;2022-07-03T10:52:51;26.70;49.10
56172;DHT22;42052;41.634;-0.946;2022-07-03T10:55:18;26.70;49.10
56172;DHT22;42052;41.634;-0.946;2022-07-03T10:58:08;26.60;49.00
56172;DHT22;42052;41.634;-0.946;2022-07-03T11:00:54;26.70;49.10
56172;DHT22;42052;41.634;-0.946;2022-07-03T11:03:59;26.70;49.10
56172;DHT22;42052;41.634;-0.946;2022-07-03T11:09:15;26.70;49.00
56172;DHT22;42052;41.634;-0.946;2022-07-03T11:14:27;26.70;49.00
56172;DHT22;42052;41.634;-0.946;2022-07-03T11:17:18;26.70;49.00
56172;DHT22;42052;41.634;-0.946;2022-07-03T11:19:46;26.70;49.00
56172;DHT22;42052;41.634;-0.946;2022-07-03T11:25:48;26.70;49.10
56172;DHT22;42052;41.634;-0.946;2022-07-03T11:36:11;26.70;49.10
56172;DHT22;42052;41.634;-0.946;2022-07-03T11:39:08;26.70;49.20
56172;DHT22;42052;41.634;-0.946;2022-07-03T11:44:03;26.70;49.10
56172;DHT22;42052;41.634;-0.946;2022-07-03T11:46:31;26.70;49.10
56172;DHT22;42052;41.634;-0.946;2022-07-03T11:49:11;26.70;49.10
56172;DHT22;42052;41.634;-0.946;2022-07-03T11:51:39;26.70;49.00
56172;DHT22;42052;41.634;-0.946;2022-07-03T11:54:06;26.70;49.00
56172;DHT22;42052;41.634;-0.946;2022-07-03T11:56:33;26.80;49.10
56172;DHT22;42052;41.634;-0.946;2022-07-03T11:59:01;26.70;49.10
56172;DHT22;42052;41.634;-0.946;2022-07-03T12:01:29;26.80;49.20
56172;DHT22;42052;41.634;-0.946;2022-07-03T12:04:08;26.80;49.40
56172;DHT22;42052;41.634;-0.946;2022-07-03T12:06:57;26.80;49.20
56172;DHT22;42052;41.634;-0.946;2022-07-03T12:09:34;26.80;49.30
56172;DHT22;42052;41.634;-0.946;2022-07-03T12:12:10;26.80;49.40
56172;DHT22;42052;41.634;-0.946;2022-07-03T12:14:47;26.80;49.20
56172;DHT22;42052;41.634;-0.946;2022-07-03T12:17:22;26.80;49.20
56172;DHT22;42052;41.634;-0.946;2022-07-03T12:19:55;26.80;49.30
56172;DHT22;42052;41.634;-0.946;2022-07-03T12:22:25;26.80;49.20
56172;DHT22;42052;41.634;-0.946;2022-07-03T12:25:12;26.80;49.30
56172;DHT22;42052;41.634;-0.946;2022-07-03T12:27:40;26.80;49.20
56172;DHT22;42052;41.634;-0.946;2022-07-03T12:30:11;26.80;49.20
56172;DHT22;42052;41.634;-0.946;2022-07-03T12:32:38;26.80;49.20
56172;DHT22;42052;41.634;-0.946;2022-07-03T12:35:05;26.80;49.20
56172;DHT22;42052;41.634;-0.946;2022-07-03T12:37:35;26.80;49.40
56172;DHT22;42052;41.634;-0.946;2022-07-03T12:40:03;26.80;49.30
56172;DHT22;42052;41.634;-0.946;2022-07-03T12:42:29;26.80;49.40
56172;DHT22;42052;41.634;-0.946;2022-07-03T12:47:26;26.90;49.40
56172;DHT22;42052;41.634;-0.946;2022-07-03T12:49:56;26.80;49.30
56172;DHT22;42052;41.634;-0.946;2022-07-03T12:52:24;26.90;49.40
56172;DHT22;42052;41.634;-0.946;2022-07-03T12:54:49;26.90;49.40
56172;DHT22;42052;41.634;-0.946;2022-07-03T12:57:16;26.90;49.50
56172;DHT22;42052;41.634;-0.946;2022-07-03T13:00:14;26.90;49.50
56172;DHT22;42052;41.634;-0.946;2022-07-03T13:02:47;26.90;49.50
56172;DHT22;42052;41.634;-0.946;2022-07-03T13:05:24;26.90;49.40
56172;DHT22;42052;41.634;-0.946;2022-07-03T13:07:54;26.90;49.50
56172;DHT22;42052;41.634;-0.946;2022-07-03T13:10:23;26.90;49.50
56172;DHT22;42052;41.634;-0.946;2022-07-03T13:12:56;26.90;49.50
56172;DHT22;42052;41.634;-0.946;2022-07-03T13:15:26;26.90;49.50
56172;DHT22;42052;41.634;-0.946;2022-07-03T13:20:25;26.90;49.40
56172;DHT22;42052;41.634;-0.946;2022-07-03T13:22:52;26.90;49.50
56172;DHT22;42052;41.634;-0.946;2022-07-03T13:25:19;26.90;49.50
56172;DHT22;42052;41.634;-0.946;2022-07-03T13:27:45;26.90;49.50
56172;DHT22;42052;41.634;-0.946;2022-07-03T13:30:15;26.90;49.50
56172;DHT22;42052;41.634;-0.946;2022-07-03T13:32:42;26.90;49.50
56172;DHT22;42052;41.634;-0.946;2022-07-03T13:35:08;26.90;49.50
56172;DHT22;42052;41.634;-0.946;2022-07-03T13:37:35;26.90;49.50
56172;DHT22;42052;41.634;-0.946;2022-07-03T13:40:02;26.90;49.50
56172;DHT22;42052;41.634;-0.946;2022-07-03T13:42:29;26.90;49.50
56172;DHT22;42052;41.634;-0.946;2022-07-03T13:44:55;26.90;49.40
56172;DHT22;42052;41.634;-0.946;2022-07-03T13:47:21;26.90;50.20
56172;DHT22;42052;41.634;-0.946;2022-07-03T13:49:47;26.90;49.50
56172;DHT22;42052;41.634;-0.946;2022-07-03T13:52:13;26.90;49.50
56172;DHT22;42052;41.634;-0.946;2022-07-03T13:54:39;26.90;49.50
56172;DHT22;42052;41.634;-0.946;2022-07-03T13:57:05;26.90;49.60
56172;DHT22;42052;41.634;-0.946;2022-07-03T13:59:31;27.00;49.70
56172;DHT22;42052;41.634;-0.946;2022-07-03T14:01:57;26.90;49.50
56172;DHT22;42052;41.634;-0.946;2022-07-03T14:04:24;26.90;49.60
56172;DHT22;42052;41.634;-0.946;2022-07-03T14:06:50;26.90;49.60
56172;DHT22;42052;41.634;-0.946;2022-07-03T14:09:16;27.00;49.60
56172;DHT22;42052;41.634;-0.946;2022-07-03T14:11:42;27.00;49.60
56172;DHT22;42052;41.634;-0.946;2022-07-03T14:14:08;27.00;49.60
56172;DHT22;42052;41.634;-0.946;2022-07-03T14:16:34;27.00;49.50
56172;DHT22;42052;41.634;-0.946;2022-07-03T14:19:00;27.00;49.50
56172;DHT22;42052;41.634;-0.946;2022-07-03T14:21:29;27.00;49.70
56172;DHT22;42052;41.634;-0.946;2022-07-03T14:23:55;27.00;49.50
56172;DHT22;42052;41.634;-0.946;2022-07-03T14:26:21;27.00;49.60
56172;DHT22;42052;41.634;-0.946;2022-07-03T14:29:07;27.00;49.50
56172;DHT22;42052;41.634;-0.946;2022-07-03T14:31:55;27.00;49.60
56172;DHT22;42052;41.634;-0.946;2022-07-03T14:34:40;27.00;49.60
56172;DHT22;42052;41.634;-0.946;2022-07-03T14:37:06;27.00;49.50
56172;DHT22;42052;41.634;-0.946;2022-07-03T14:39:32;27.10;49.60
56172;DHT22;42052;41.634;-0.946;2022-07-03T14:41:59;27.10;49.80
56172;DHT22;42052;41.634;-0.946;2022-07-03T14:44:24;27.10;49.70
56172;DHT22;42052;41.634;-0.946;2022-07-03T14:46:54;27.10;49.60
56172;DHT22;42052;41.634;-0.946;2022-07-03T14:49:21;27.10;49.60
56172;DHT22;42052;41.634;-0.946;2022-07-03T14:51:47;27.10;49.50
56172;DHT22;42052;41.634;-0.946;2022-07-03T14:54:20;27.10;49.50
56172;DHT22;42052;41.634;-0.946;2022-07-03T14:56:56;27.10;49.60
56172;DHT22;42052;41.634;-0.946;2022-07-03T14:59:39;27.10;49.50
56172;DHT22;42052;41.634;-0.946;2022-07-03T15:02:22;27.10;49.50
56172;DHT22;42052;41.634;-0.946;2022-07-03T15:05:08;27.10;49.60
56172;DHT22;42052;41.634;-0.946;2022-07-03T15:07:40;27.10;49.80
56172;DHT22;42052;41.634;-0.946;2022-07-03T15:10:14;27.20;49.80
56172;DHT22;42052;41.634;-0.946;2022-07-03T15:12:48;27.20;49.60
56172;DHT22;42052;41.634;-0.946;2022-07-03T15:15:16;27.10;49.60
56172;DHT22;42052;41.634;-0.946;2022-07-03T15:17:44;27.20;49.70
56172;DHT22;42052;41.634;-0.946;2022-07-03T15:20:13;27.20;49.70
56172;DHT22;42052;41.634;-0.946;2022-07-03T15:22:43;27.20;49.80
56172;DHT22;42052;41.634;-0.946;2022-07-03T15:25:11;27.20;49.70
56172;DHT22;42052;41.634;-0.946;2022-07-03T15:27:37;27.20;49.70
56172;DHT22;42052;41.634;-0.946;2022-07-03T15:30:05;27.20;49.80
56172;DHT22;42052;41.634;-0.946;2022-07-03T15:32:31;27.20;49.80
56172;DHT22;42052;41.634;-0.946;2022-07-03T15:34:57;27.20;49.80
56172;DHT22;42052;41.634;-0.946;2022-07-03T15:40:17;27.20;49.80
56172;DHT22;42052;41.634;-0.946;2022-07-03T15:45:45;27.20;49.60
56172;DHT22;42052;41.634;-0.946;2022-07-03T15:48:23;27.20;49.70
56172;DHT22;42052;41.634;-0.946;2022-07-03T15:51:05;27.20;49.70
56172;DHT22;42052;41.634;-0.946;2022-07-03T15:53:40;27.20;49.80
56172;DHT22;42052;41.634;-0.946;2022-07-03T15:56:08;27.20;49.90
56172;DHT22;42052;41.634;-0.946;2022-07-03T15:58:36;27.20;48.50
56172;DHT22;42052;41.634;-0.946;2022-07-03T16:01:09;27.20;47.00
56172;DHT22;42052;41.634;-0.946;2022-07-03T16:04:10;27.10;46.30
56172;DHT22;42052;41.634;-0.946;2022-07-03T16:06:42;26.90;45.80
56172;DHT22;42052;41.634;-0.946;2022-07-03T16:09:10;26.90;45.30
56172;DHT22;42052;41.634;-0.946;2022-07-03T16:11:36;26.70;44.90
56172;DHT22;42052;41.634;-0.946;2022-07-03T16:14:03;26.60;44.70
56172;DHT22;42052;41.634;-0.946;2022-07-03T16:16:31;26.60;44.60
56172;DHT22;42052;41.634;-0.946;2022-07-03T16:19:01;26.50;44.40
56172;DHT22;42052;41.634;-0.946;2022-07-03T16:21:29;26.30;44.20
56172;DHT22;42052;41.634;-0.946;2022-07-03T16:23:55;26.30;44.10
56172;DHT22;42052;41.634;-0.946;2022-07-03T16:26:21;26.20;44.00
56172;DHT22;42052;41.634;-0.946;2022-07-03T16:28:48;26.10;44.00
56172;DHT22;42052;41.634;-0.946;2022-07-03T16:31:16;26.10;44.10
56172;DHT22;42052;41.634;-0.946;2022-07-03T16:33:49;25.90;45.80
56172;DHT22;42052;41.634;-0.946;2022-07-03T16:36:21;26.00;46.30
56172;DHT22;42052;41.634;-0.946;2022-07-03T16:39:07;26.00;46.70
56172;DHT22;42052;41.634;-0.946;2022-07-03T16:41:34;26.00;47.10
56172;DHT22;42052;41.634;-0.946;2022-07-03T16:44:04;26.10;47.10